createdAt,value
2018-10-16T00:00:19.657Z,6.73
2018-10-16T00:02:47.792Z,6.67
2018-10-16T00:05:16.468Z,7.57
2018-10-16T00:07:44.216Z,6.10
2018-10-16T00:10:11.947Z,6.90
2018-10-16T00:12:39.707Z,6.93
2018-10-16T00:15:08.462Z,6.53
2018-10-16T00:17:36.247Z,7.40
2018-10-16T00:20:05.564Z,7.13
2018-10-16T00:22:33.292Z,8.37
2018-10-16T00:25:00.976Z,7.90
2018-10-16T00:27:28.684Z,6.53
2018-10-16T00:29:56.392Z,6.23
2018-10-16T00:32:27.563Z,6.80
2018-10-16T00:34:55.260Z,7.23
2018-10-16T00:37:22.959Z,7.00
2018-10-16T00:39:50.676Z,7.00
2018-10-16T00:44:26.442Z,6.87
2018-10-16T00:46:54.107Z,6.10
2018-10-16T00:49:21.780Z,5.70
2018-10-16T00:51:49.472Z,6.63
2018-10-16T00:54:17.183Z,6.90
2018-10-16T00:56:44.908Z,6.40
2018-10-16T00:59:12.624Z,5.62
2018-10-16T01:01:40.351Z,6.27
2018-10-16T01:04:11.436Z,6.03
2018-10-16T01:06:39.219Z,6.17
2018-10-16T01:09:09.553Z,7.00
2018-10-16T01:11:37.473Z,6.90
2018-10-16T01:14:05.181Z,6.43
2018-10-16T01:16:32.956Z,7.43
2018-10-16T01:19:00.618Z,6.57
2018-10-16T01:21:28.400Z,8.30
2018-10-16T01:23:56.155Z,6.97
2018-10-16T01:26:23.860Z,7.60
2018-10-16T01:28:55.183Z,6.53
2018-10-16T01:31:22.928Z,7.17
2018-10-16T01:33:50.764Z,6.90
2018-10-16T01:36:18.511Z,7.53
2018-10-16T01:38:46.196Z,7.57
2018-10-16T01:41:13.811Z,7.13
2018-10-16T01:43:41.488Z,7.43
2018-10-16T01:46:09.302Z,6.47
2018-10-16T01:48:37.532Z,6.50
2018-10-16T01:51:05.400Z,7.30
2018-10-16T01:53:33.105Z,6.73
2018-10-16T01:56:00.784Z,6.00
2018-10-16T01:58:28.500Z,7.27
2018-10-16T02:00:59.512Z,7.35
2018-10-16T02:03:27.202Z,6.10
2018-10-16T02:05:54.916Z,6.70
2018-10-16T02:08:22.656Z,7.43
2018-10-16T02:10:50.412Z,7.90
2018-10-16T02:13:18.361Z,7.37
2018-10-16T02:15:46.107Z,7.07
2018-10-16T02:18:13.802Z,7.00
2018-10-16T02:20:41.567Z,6.93
2018-10-16T02:23:09.345Z,8.00
2018-10-16T02:25:37.075Z,7.10
2018-10-16T02:28:04.810Z,6.70
2018-10-16T02:30:32.618Z,7.25
2018-10-16T02:33:00.413Z,8.93
2018-10-16T02:35:28.124Z,7.60
2018-10-16T02:37:55.901Z,7.77
2018-10-16T02:40:23.644Z,7.80
2018-10-16T02:42:51.292Z,7.50
2018-10-16T02:45:22.126Z,6.97
2018-10-16T02:47:49.899Z,6.47
2018-10-16T02:50:17.747Z,6.90
2018-10-16T02:52:45.480Z,7.78
2018-10-16T02:55:13.180Z,7.33
2018-10-16T02:57:40.907Z,6.62
2018-10-16T03:00:08.686Z,6.33
2018-10-16T03:02:36.369Z,6.53
2018-10-16T03:05:04.620Z,6.65
2018-10-16T03:07:32.354Z,6.80
2018-10-16T03:10:00.105Z,7.10
2018-10-16T03:12:27.832Z,9.03
2018-10-16T03:14:55.516Z,6.75
2018-10-16T03:17:23.252Z,7.30
2018-10-16T03:19:51.015Z,6.83
2018-10-16T03:22:18.747Z,8.80
2018-10-16T03:24:46.544Z,8.60
2018-10-16T03:27:14.292Z,6.75
2018-10-16T03:29:42.000Z,7.40
2018-10-16T03:32:09.723Z,8.15
2018-10-16T03:34:38.388Z,6.00
2018-10-16T03:37:06.216Z,7.05
2018-10-16T03:39:33.940Z,9.00
2018-10-16T03:42:01.727Z,6.95
2018-10-16T03:44:29.451Z,7.03
2018-10-16T03:46:57.245Z,6.92
2018-10-16T03:49:24.976Z,7.17
2018-10-16T03:51:52.716Z,7.47
2018-10-16T03:54:20.448Z,7.85
2018-10-16T03:56:48.496Z,8.20
2018-10-16T03:59:16.205Z,7.10
2018-10-16T04:01:44.014Z,6.75
2018-10-16T04:04:11.728Z,7.85
2018-10-16T04:06:39.458Z,6.95
2018-10-16T04:09:07.264Z,7.53
2018-10-16T04:11:34.966Z,7.45
2018-10-16T04:14:02.730Z,7.42
2018-10-16T04:16:30.417Z,7.47
2018-10-16T04:18:58.144Z,7.87
2018-10-16T04:21:44.852Z,6.80
2018-10-16T04:24:15.991Z,7.17
2018-10-16T04:26:43.729Z,8.10
2018-10-16T04:29:12.005Z,7.40
2018-10-16T04:31:39.707Z,7.15
2018-10-16T04:34:08.300Z,7.47
2018-10-16T04:36:36.012Z,7.75
2018-10-16T04:39:09.064Z,7.53
2018-10-16T04:41:36.819Z,6.65
2018-10-16T04:44:08.774Z,7.80
2018-10-16T04:46:36.532Z,7.87
2018-10-16T04:49:04.579Z,8.13
2018-10-16T04:51:32.287Z,7.25
2018-10-16T04:54:02.827Z,6.92
2018-10-16T04:56:30.516Z,7.10
2018-10-16T04:58:58.139Z,9.20
2018-10-16T05:01:26.270Z,8.10
2018-10-16T05:03:54.092Z,7.65
2018-10-16T05:06:21.806Z,9.38
2018-10-16T05:08:49.441Z,8.03
2018-10-16T05:11:20.960Z,7.20
2018-10-16T05:13:48.693Z,6.83
2018-10-16T05:16:16.437Z,7.60
2018-10-16T05:18:44.135Z,7.17
2018-10-16T05:21:11.908Z,7.60
2018-10-16T05:23:39.592Z,6.92
2018-10-16T05:26:07.430Z,7.15
2018-10-16T05:28:35.184Z,6.83
2018-10-16T05:31:02.899Z,7.72
2018-10-16T05:33:30.677Z,8.28
2018-10-16T05:35:58.553Z,6.45
2018-10-16T05:38:26.324Z,8.95
2018-10-16T05:40:54.077Z,8.10
2018-10-16T05:43:21.817Z,8.93
2018-10-16T05:45:49.599Z,7.20
2018-10-16T05:48:17.320Z,7.28
2018-10-16T05:50:45.113Z,7.60
2018-10-16T05:53:12.820Z,7.35
2018-10-16T05:55:40.768Z,7.78
2018-10-16T05:58:08.591Z,8.15
2018-10-16T06:00:39.504Z,7.47
2018-10-16T06:03:07.256Z,7.03
2018-10-16T06:05:35.129Z,6.90
2018-10-16T06:08:02.884Z,7.72
2018-10-16T06:10:30.612Z,6.30
2018-10-16T06:12:58.368Z,7.80
2018-10-16T06:15:26.118Z,7.03
2018-10-16T06:17:53.836Z,6.80
2018-10-16T06:20:21.572Z,9.23
2018-10-16T06:22:49.316Z,6.95
2018-10-16T06:25:16.995Z,8.13
2018-10-16T06:27:44.790Z,8.08
2018-10-16T06:30:12.659Z,6.80
2018-10-16T06:32:40.623Z,7.45
2018-10-16T06:35:09.520Z,8.70
2018-10-16T06:37:37.252Z,6.95
2018-10-16T06:40:06.168Z,7.90
2018-10-16T06:42:33.947Z,6.40
2018-10-16T06:45:01.666Z,7.27
2018-10-16T06:47:29.530Z,8.03
2018-10-16T06:49:57.160Z,6.10
2018-10-16T06:52:24.888Z,7.92
2018-10-16T06:54:52.651Z,8.00
2018-10-16T06:57:20.682Z,7.60
2018-10-16T06:59:48.396Z,7.77
2018-10-16T07:02:16.060Z,9.60
2018-10-16T07:04:43.820Z,10.40
2018-10-16T07:07:11.995Z,10.13
2018-10-16T07:09:39.933Z,11.67
2018-10-16T07:12:10.854Z,10.33
2018-10-16T07:14:38.591Z,12.63
2018-10-16T07:17:06.294Z,11.33
2018-10-16T07:19:34.000Z,11.97
2018-10-16T07:22:03.936Z,12.97
2018-10-16T07:24:31.640Z,9.93
2018-10-16T07:26:59.353Z,10.10
2018-10-16T07:29:27.636Z,11.70
2018-10-16T07:31:55.272Z,11.23
2018-10-16T07:34:22.928Z,11.20
2018-10-16T07:36:50.632Z,9.50
2018-10-16T07:39:18.384Z,8.80
2018-10-16T07:41:46.096Z,9.20
2018-10-16T07:44:13.832Z,8.90
2018-10-16T07:46:41.495Z,9.70
2018-10-16T07:49:09.513Z,9.63
2018-10-16T07:51:37.433Z,8.90
2018-10-16T07:54:05.347Z,10.10
2018-10-16T07:56:33.104Z,9.50
2018-10-16T07:59:00.808Z,9.77
2018-10-16T08:01:28.541Z,9.37
2018-10-16T08:03:56.242Z,9.70
2018-10-16T08:06:23.931Z,10.07
2018-10-16T08:08:51.628Z,8.93
2018-10-16T08:11:19.524Z,10.20
2018-10-16T08:13:47.168Z,9.80
2018-10-16T08:16:14.872Z,10.53
2018-10-16T08:18:42.596Z,11.97
2018-10-16T08:21:10.312Z,11.97
2018-10-16T08:23:37.979Z,9.97
2018-10-16T08:26:06.401Z,10.27
2018-10-16T08:28:34.135Z,9.53
2018-10-16T08:31:01.993Z,10.27
2018-10-16T08:33:29.656Z,10.30
2018-10-16T08:35:57.500Z,9.10
2018-10-16T08:39:31.655Z,9.13
2018-10-16T08:43:03.301Z,11.10
2018-10-16T08:45:42.354Z,10.43
2018-10-16T08:48:21.232Z,11.17
2018-10-16T08:51:00.228Z,9.10
2018-10-16T08:53:27.992Z,9.10
2018-10-16T08:55:55.637Z,11.10
2018-10-16T08:58:23.360Z,10.60
2018-10-16T09:00:51.120Z,11.13
2018-10-16T09:03:18.859Z,11.10
2018-10-16T09:05:46.496Z,11.10
2018-10-16T09:08:14.191Z,12.70
2018-10-16T09:10:41.912Z,10.93
2018-10-16T09:13:09.628Z,12.80
2018-10-16T09:15:38.188Z,11.60
2018-10-16T09:18:05.916Z,10.90
2018-10-16T09:20:33.645Z,10.33
2018-10-16T09:23:01.324Z,11.10
2018-10-16T09:25:29.033Z,10.10
2018-10-16T09:27:56.760Z,11.47
2018-10-16T09:30:24.440Z,11.33
2018-10-16T09:32:52.089Z,10.20
2018-10-16T09:35:19.816Z,10.80
2018-10-16T09:37:49.633Z,12.40
2018-10-16T09:40:17.347Z,10.17
2018-10-16T09:42:44.992Z,10.63
2018-10-16T09:45:12.952Z,9.23
2018-10-16T09:47:40.593Z,10.17
2018-10-16T09:50:09.531Z,10.30
2018-10-16T09:52:37.361Z,9.10
2018-10-16T09:55:06.132Z,13.10
2018-10-16T09:57:33.808Z,10.40
2018-10-16T10:00:01.574Z,10.17
2018-10-16T10:02:29.324Z,9.60
2018-10-16T10:04:57.000Z,11.03
2018-10-16T10:07:24.688Z,9.93
2018-10-16T10:09:52.416Z,11.10
2018-10-16T10:12:20.094Z,10.80
2018-10-16T10:14:47.759Z,10.37
2018-10-16T10:17:15.396Z,11.10
2018-10-16T10:19:43.060Z,9.70
2018-10-16T10:22:10.820Z,10.60
2018-10-16T10:24:41.668Z,8.27
2018-10-16T10:27:09.432Z,10.73
2018-10-16T10:29:37.211Z,10.30
2018-10-16T10:32:06.154Z,9.67
2018-10-16T10:34:33.900Z,8.60
2018-10-16T10:37:01.683Z,8.17
2018-10-16T10:39:30.327Z,8.30
2018-10-16T10:41:58.052Z,7.20
2018-10-16T10:44:25.747Z,8.40
2018-10-16T10:46:53.428Z,6.97
2018-10-16T10:49:21.216Z,7.03
2018-10-16T10:51:48.912Z,7.20
2018-10-16T10:54:16.622Z,7.20
2018-10-16T10:56:44.427Z,6.50
2018-10-16T10:59:11.963Z,7.07
2018-10-16T11:01:39.730Z,8.03
2018-10-16T11:04:07.433Z,6.73
2018-10-16T11:06:35.201Z,7.27
2018-10-16T11:09:04.146Z,8.30
2018-10-16T11:11:31.768Z,7.87
2018-10-16T11:13:59.453Z,7.67
2018-10-16T11:16:27.170Z,7.10
2018-10-16T11:18:54.891Z,6.23
2018-10-16T11:21:22.616Z,6.50
2018-10-16T11:23:50.343Z,6.77
2018-10-16T11:26:18.064Z,5.90
2018-10-16T11:28:45.758Z,5.90
2018-10-16T11:31:13.524Z,7.43
2018-10-16T11:33:41.297Z,6.43
2018-10-16T11:36:09.040Z,6.00
2018-10-16T11:38:36.780Z,6.67
2018-10-16T11:41:04.878Z,5.73
2018-10-16T11:43:32.584Z,6.70
2018-10-16T11:46:00.299Z,6.77
2018-10-16T11:48:28.006Z,6.53
2018-10-16T11:50:55.800Z,6.30
2018-10-16T11:53:23.564Z,6.17
2018-10-16T11:55:51.389Z,6.90
2018-10-16T11:58:19.102Z,5.97
2018-10-16T12:00:46.774Z,6.23
2018-10-16T12:03:14.420Z,6.37
2018-10-16T12:05:42.141Z,6.47
2018-10-16T12:08:09.910Z,5.93
2018-10-16T12:10:37.610Z,5.90
2018-10-16T12:13:05.304Z,5.47
2018-10-16T12:15:32.981Z,5.87
2018-10-16T12:18:21.592Z,5.43
2018-10-16T12:20:53.739Z,5.00
2018-10-16T12:23:21.448Z,5.03
2018-10-16T12:25:49.140Z,5.30
2018-10-16T12:28:16.816Z,5.07
2018-10-16T12:30:44.488Z,5.20
2018-10-16T12:33:12.258Z,5.57
2018-10-16T12:35:39.875Z,5.23
2018-10-16T12:38:07.556Z,5.20
2018-10-16T12:40:35.288Z,4.80
2018-10-16T12:43:03.148Z,5.57
2018-10-16T12:45:30.769Z,4.40
2018-10-16T12:47:58.561Z,5.07
2018-10-16T12:50:26.297Z,4.90
2018-10-16T12:52:53.935Z,5.00
2018-10-16T12:55:21.624Z,5.20
2018-10-16T12:57:49.284Z,4.77
2018-10-16T13:00:17.057Z,5.70
2018-10-16T13:02:45.757Z,5.23
2018-10-16T13:05:13.627Z,5.33
2018-10-16T13:07:41.224Z,5.00
2018-10-16T13:10:14.895Z,4.57
2018-10-16T13:12:43.499Z,5.63
2018-10-16T13:15:12.340Z,5.47
2018-10-16T13:17:40.364Z,5.00
2018-10-16T13:20:09.782Z,5.33
2018-10-16T13:22:37.816Z,4.87
2018-10-16T13:25:06.524Z,4.73
2018-10-16T13:27:34.311Z,3.80
2018-10-16T13:30:02.122Z,4.37
2018-10-16T13:32:29.768Z,4.63
2018-10-16T13:34:57.527Z,4.30
2018-10-16T13:37:25.216Z,5.13
2018-10-16T13:39:52.876Z,4.80
2018-10-16T13:42:20.586Z,4.50
2018-10-16T13:44:48.220Z,4.57
2018-10-16T13:47:15.916Z,4.30
2018-10-16T13:49:43.545Z,4.23
2018-10-16T13:52:11.337Z,4.67
2018-10-16T13:54:38.940Z,5.00
2018-10-16T13:57:06.664Z,5.20
2018-10-16T13:59:34.335Z,4.13
2018-10-16T14:02:02.092Z,4.50
2018-10-16T14:04:29.816Z,4.70
2018-10-16T14:06:57.547Z,5.03
2018-10-16T14:09:25.191Z,5.10
2018-10-16T14:11:52.958Z,4.70
2018-10-16T14:14:20.624Z,4.73
2018-10-16T14:16:48.354Z,4.03
2018-10-16T14:19:15.942Z,4.80
2018-10-16T14:21:43.692Z,5.40
2018-10-16T14:24:11.378Z,4.43
2018-10-16T14:26:39.075Z,4.83
2018-10-16T14:29:06.718Z,5.60
2018-10-16T14:31:34.399Z,5.07
2018-10-16T14:34:06.055Z,5.00
2018-10-16T14:36:33.733Z,4.83
2018-10-16T14:39:01.451Z,4.77
2018-10-16T14:41:29.258Z,5.70
2018-10-16T14:43:56.988Z,4.77
2018-10-16T14:46:24.736Z,4.60
2018-10-16T14:48:52.401Z,5.40
2018-10-16T14:51:20.152Z,4.60
2018-10-16T14:53:47.885Z,5.00
2018-10-16T14:56:15.689Z,4.67
2018-10-16T14:58:43.324Z,4.20
2018-10-16T15:01:11.376Z,5.47
2018-10-16T15:03:39.017Z,5.03
2018-10-16T15:06:10.088Z,4.30
2018-10-16T15:08:37.808Z,3.90
2018-10-16T15:11:05.516Z,4.53
2018-10-16T15:13:33.216Z,4.87
2018-10-16T15:16:00.947Z,4.60
2018-10-16T15:18:28.656Z,4.80
2018-10-16T15:20:56.420Z,4.30
2018-10-16T15:23:24.097Z,4.43
2018-10-16T15:25:51.825Z,4.20
2018-10-16T15:28:19.521Z,4.10
2018-10-16T15:30:47.128Z,3.60
2018-10-16T15:33:14.781Z,3.63
2018-10-16T15:35:42.620Z,3.80
2018-10-16T15:38:10.358Z,4.40
2018-10-16T15:40:38.042Z,4.20
2018-10-16T15:43:05.729Z,4.00
2018-10-16T15:45:33.403Z,3.50
2018-10-16T15:48:01.269Z,3.40
2018-10-16T15:50:28.945Z,4.00
2018-10-16T15:52:56.564Z,4.00
2018-10-16T15:55:24.250Z,4.20
2018-10-16T15:57:52.057Z,3.60
2018-10-16T16:00:19.732Z,4.70
2018-10-16T16:02:47.452Z,3.50
2018-10-16T16:05:15.149Z,3.70
2018-10-16T16:07:42.920Z,3.57
2018-10-16T16:10:12.917Z,4.10
2018-10-16T16:12:40.536Z,3.40
2018-10-16T16:16:11.656Z,3.83
2018-10-16T16:18:39.296Z,3.70
2018-10-16T16:21:07.222Z,4.30
2018-10-16T16:23:34.912Z,4.83
2018-10-16T16:26:02.754Z,4.60
2018-10-16T16:28:30.404Z,5.63
2018-10-16T16:30:58.132Z,4.47
2018-10-16T16:33:25.860Z,5.27
2018-10-16T16:35:53.627Z,5.60
2018-10-16T16:38:21.322Z,5.30
2018-10-16T16:40:49.043Z,6.30
2018-10-16T16:43:16.706Z,5.27
2018-10-16T16:45:44.396Z,5.40
2018-10-16T16:48:12.136Z,7.53
2018-10-16T16:50:39.813Z,4.77
2018-10-16T16:53:07.616Z,4.97
2018-10-16T16:55:35.232Z,5.20
2018-10-16T16:58:02.994Z,5.07
2018-10-16T17:00:30.771Z,5.60
2018-10-16T17:02:58.484Z,4.07
2018-10-16T17:05:26.200Z,5.70
2018-10-16T17:07:53.971Z,5.17
2018-10-16T17:10:21.692Z,6.13
2018-10-16T17:12:49.352Z,4.70
2018-10-16T17:15:17.067Z,5.43
2018-10-16T17:17:45.568Z,5.30
2018-10-16T17:20:13.375Z,4.70
2018-10-16T17:22:41.057Z,5.47
2018-10-16T17:25:10.821Z,4.83
2018-10-16T17:27:38.703Z,6.00
2018-10-16T17:30:09.907Z,4.93
2018-10-16T17:32:37.636Z,6.10
2018-10-16T17:35:06.010Z,5.73
2018-10-16T17:37:33.716Z,5.13
2018-10-16T17:40:05.708Z,6.90
2018-10-16T17:42:33.496Z,6.63
2018-10-16T17:45:01.326Z,6.13
2018-10-16T17:47:29.056Z,6.40
2018-10-16T17:49:56.804Z,5.70
2018-10-16T17:52:24.524Z,6.63
2018-10-16T17:54:52.215Z,5.97
2018-10-16T17:57:20.505Z,6.07
2018-10-16T17:59:48.669Z,5.83
2018-10-16T18:02:16.431Z,6.90
2018-10-16T18:04:44.272Z,5.70
2018-10-16T18:07:11.936Z,6.40
2018-10-16T18:09:39.873Z,6.53
2018-10-16T18:12:08.046Z,5.20
2018-10-16T18:14:36.027Z,6.13
2018-10-16T18:17:03.942Z,6.37
2018-10-16T18:19:32.497Z,6.90
2018-10-16T18:22:01.677Z,7.53
2018-10-16T18:24:30.818Z,6.70
2018-10-16T18:27:00.366Z,5.90
2018-10-16T18:29:29.537Z,6.43
2018-10-16T18:31:58.642Z,6.77
2018-10-16T18:34:28.206Z,6.90
2018-10-16T18:36:57.645Z,6.67
2018-10-16T18:39:27.314Z,7.90
2018-10-16T18:41:57.498Z,7.20
2018-10-16T18:44:27.573Z,6.00
2018-10-16T18:46:57.931Z,6.80
2018-10-16T18:49:27.985Z,6.33
2018-10-16T18:51:58.164Z,6.60
2018-10-16T18:54:28.391Z,6.57
2018-10-16T18:56:58.679Z,6.73
2018-10-16T18:59:29.268Z,5.10
2018-10-16T19:01:59.565Z,5.80
2018-10-16T19:04:29.797Z,6.40
2018-10-16T19:07:00.081Z,6.17
2018-10-16T19:09:30.303Z,6.37
2018-10-16T19:12:00.636Z,5.73
2018-10-16T19:14:30.927Z,6.00
2018-10-16T19:17:01.149Z,6.27
2018-10-16T19:19:31.350Z,5.90
2018-10-16T19:22:01.650Z,5.50
2018-10-16T19:24:31.801Z,6.23
2018-10-16T19:27:04.544Z,6.67
2018-10-16T19:29:34.829Z,7.23
2018-10-16T19:32:05.334Z,5.97
2018-10-16T19:34:35.764Z,6.13
2018-10-16T19:37:05.986Z,6.10
2018-10-16T19:39:36.179Z,5.30
2018-10-16T19:42:07.658Z,5.73
2018-10-16T19:44:37.945Z,5.63
2018-10-16T19:47:08.201Z,6.03
2018-10-16T19:49:38.475Z,7.00
2018-10-16T19:52:08.737Z,5.97
2018-10-16T19:54:39.011Z,5.73
2018-10-16T19:57:09.331Z,5.57
2018-10-16T19:59:39.580Z,6.37
2018-10-16T20:02:10.144Z,5.10
2018-10-16T20:04:44.195Z,6.13
2018-10-16T20:07:14.598Z,6.23
2018-10-16T20:09:44.930Z,5.77
2018-10-16T20:12:15.136Z,5.80
2018-10-16T20:14:45.185Z,5.40
2018-10-16T20:17:15.361Z,5.10
2018-10-16T20:19:45.260Z,5.13
2018-10-16T20:22:14.945Z,5.70
2018-10-16T20:24:44.511Z,5.33
2018-10-16T20:27:14.219Z,5.23
2018-10-16T20:29:43.829Z,6.10
2018-10-16T20:32:15.727Z,5.87
2018-10-16T20:34:47.698Z,5.23
2018-10-16T20:37:16.518Z,5.20
2018-10-16T20:39:44.441Z,6.03
2018-10-16T20:42:12.271Z,4.57
2018-10-16T20:44:40.000Z,6.00
2018-10-16T20:47:07.805Z,5.80
2018-10-16T20:49:35.500Z,5.20
2018-10-16T20:52:03.684Z,5.63
2018-10-16T20:54:31.468Z,5.20
2018-10-16T20:56:59.168Z,5.37
2018-10-16T20:59:30.112Z,5.10
2018-10-16T21:01:57.837Z,5.90
2018-10-16T21:04:25.721Z,5.67
2018-10-16T21:06:53.692Z,5.67
2018-10-16T21:09:21.231Z,5.67
2018-10-16T21:11:48.911Z,5.80
2018-10-16T21:14:16.589Z,5.57
2018-10-16T21:16:44.266Z,6.10
2018-10-16T21:19:12.091Z,6.10
2018-10-16T21:21:39.760Z,6.30
2018-10-16T21:24:07.426Z,5.90
2018-10-16T21:26:35.109Z,5.87
2018-10-16T21:29:02.892Z,5.53
2018-10-16T21:31:30.627Z,5.67
2018-10-16T21:33:58.364Z,5.50
2018-10-16T21:36:26.108Z,5.73
2018-10-16T21:38:53.836Z,4.90
2018-10-16T21:41:21.469Z,5.20
2018-10-16T21:43:52.757Z,5.00
2018-10-16T21:46:20.465Z,6.07
2018-10-16T21:48:48.132Z,6.37
2018-10-16T21:51:15.876Z,6.13
2018-10-16T21:53:43.656Z,5.80
2018-10-16T21:56:11.358Z,6.07
2018-10-16T21:58:42.646Z,5.20
2018-10-16T22:01:11.458Z,5.73
2018-10-16T22:03:39.628Z,5.87
2018-10-16T22:06:07.539Z,4.97
2018-10-16T22:08:35.215Z,5.77
2018-10-16T22:11:02.968Z,5.90
2018-10-16T22:13:34.294Z,6.00
2018-10-16T22:16:02.019Z,7.03
2018-10-16T22:18:30.735Z,5.23
2018-10-16T22:20:58.423Z,6.03
2018-10-16T22:23:26.051Z,5.03
2018-10-16T22:25:53.787Z,6.60
2018-10-16T22:28:21.423Z,4.87
2018-10-16T22:30:49.133Z,5.60
2018-10-16T22:33:16.877Z,5.53
2018-10-16T22:35:44.495Z,5.03
2018-10-16T22:38:12.270Z,4.83
2018-10-16T22:40:39.956Z,5.30
2018-10-16T22:43:07.738Z,5.57
2018-10-16T22:45:35.494Z,5.00
2018-10-16T22:48:03.271Z,4.50
2018-10-16T22:50:31.027Z,4.30
2018-10-16T22:52:58.820Z,4.37
2018-10-16T22:55:26.484Z,5.13
2018-10-16T22:57:54.135Z,4.43
2018-10-16T23:00:21.820Z,5.50
2018-10-16T23:02:49.537Z,6.13
2018-10-16T23:05:17.411Z,4.70
2018-10-16T23:07:46.201Z,4.90
2018-10-16T23:10:14.592Z,5.03
2018-10-16T23:12:42.463Z,5.17
2018-10-16T23:15:13.431Z,5.07
2018-10-16T23:17:41.165Z,4.40
2018-10-16T23:20:10.247Z,5.10
2018-10-16T23:22:37.973Z,4.67
2018-10-16T23:25:05.739Z,4.57
2018-10-16T23:27:33.380Z,4.70
2018-10-16T23:30:01.221Z,5.40
2018-10-16T23:32:28.904Z,3.53
2018-10-16T23:34:56.581Z,4.70
2018-10-16T23:37:24.336Z,4.30
2018-10-16T23:39:52.084Z,6.27
2018-10-16T23:42:19.709Z,4.90
2018-10-16T23:44:47.485Z,5.50
2018-10-16T23:47:15.122Z,5.30
2018-10-16T23:49:42.811Z,4.93
2018-10-16T23:52:10.572Z,4.30
2018-10-16T23:54:38.234Z,4.43
2018-10-16T23:57:06.007Z,5.93
2018-10-16T23:59:33.720Z,5.70
